Time;durP1;ratioP1;P1;durP2;ratioP2;P2;SDS_P1;SDS_P2;PMS_P1;PMS_P2;Temp;Humidity;BMP_temperature;BMP_pressure;BME280_temperature;BME280_humidity;BME280_pressure;Samples;Min_cycle;Max_cycle;Signal;HPM_P1;HPM_P2
2023/01/11 00:00:35;;;;;;;11.25;6.28;;;;;;;4.48;62.30;94346.22;5029777;28;20038;-76
2023/01/11 00:03:02;;;;;;;11.40;5.03;;;;;;;4.49;61.97;94342.31;5028262;28;20036;-75
2023/01/11 00:05:28;;;;;;;10.93;5.35;;;;;;;4.52;62.16;94352.38;5028980;28;20107;-75
2023/01/11 00:07:53;;;;;;;7.97;4.63;;;;;;;4.44;62.00;94340.06;5009491;28;20555;-75
2023/01/11 00:10:20;;;;;;;10.63;5.95;;;;;;;4.33;62.67;94339.44;5025362;28;20037;-76
2023/01/11 00:12:45;;;;;;;11.90;5.57;;;;;;;4.22;62.76;94341.53;5025722;28;20039;-76
2023/01/11 00:15:12;;;;;;;10.27;6.03;;;;;;;4.18;63.07;94348.97;5009788;28;20030;-76
2023/01/11 00:17:37;;;;;;;9.45;5.10;;;;;;;4.21;63.31;94348.19;5026296;28;20029;-75
2023/01/11 00:20:03;;;;;;;8.02;4.97;;;;;;;4.17;63.44;94345.50;5009379;28;20029;-76
2023/01/11 00:22:28;;;;;;;8.48;5.50;;;;;;;4.20;63.45;94349.34;5010185;28;20065;-74
2023/01/11 00:24:54;;;;;;;8.50;4.63;;;;;;;4.13;63.59;94346.72;5025495;28;20404;-74
2023/01/11 00:27:20;;;;;;;9.13;4.80;;;;;;;4.13;63.80;94352.16;5027195;28;20411;-75
2023/01/11 00:29:46;;;;;;;8.23;5.13;;;;;;;4.11;63.95;94349.84;5026139;28;20048;-75
2023/01/11 00:32:12;;;;;;;6.25;4.13;;;;;;;4.13;63.98;94355.66;5027629;28;20124;-75
2023/01/11 00:34:38;;;;;;;6.60;3.83;;;;;;;4.11;63.82;94349.09;5025719;28;20583;-76
2023/01/11 00:37:03;;;;;;;5.57;3.60;;;;;;;4.10;63.55;94359.19;5021534;28;20044;-77
2023/01/11 00:39:29;;;;;;;8.50;4.45;;;;;;;4.07;63.63;94351.88;5020307;28;20480;-75
2023/01/11 00:50:06;;;;;;;;;;;;;;;3.92;64.48;94364.88;5046103;28;20228;-75
2023/01/11 00:52:32;;;;;;;6.35;3.65;;;;;;;3.88;64.27;94368.81;5046028;28;19913;-75
2023/01/11 00:55:00;;;;;;;5.97;3.53;;;;;;;3.85;64.42;94358.75;5044127;28;20029;-76
2023/01/11 00:57:25;;;;;;;5.93;3.40;;;;;;;3.90;64.50;94367.22;5046362;28;20433;-74
2023/01/11 00:59:51;;;;;;;5.65;3.10;;;;;;;3.96;64.36;94362.13;5011825;28;20029;-74
2023/01/11 01:02:16;;;;;;;7.80;4.03;;;;;;;3.97;64.26;94358.97;5028102;28;20029;-74
2023/01/11 01:04:42;;;;;;;6.72;3.90;;;;;;;4.03;63.80;94367.47;5035287;28;20036;-74
2023/01/11 01:07:10;;;;;;;8.02;4.57;;;;;;;4.01;63.79;94369.78;5009162;28;20029;-74
2023/01/11 01:09:35;;;;;;;7.00;4.05;;;;;;;4.00;63.79;94360.09;4992969;28;20140;-76
2023/01/11 01:12:01;;;;;;;5.47;3.30;;;;;;;4.01;63.56;94372.50;5008455;28;20034;-75
2023/01/11 01:14:28;;;;;;;11.20;4.20;;;;;;;4.02;63.55;94362.44;4993004;28;20447;-74
2023/01/11 01:16:59;;;;;;;6.28;3.30;;;;;;;3.98;63.75;94368.69;5008734;28;20033;-75
2023/01/11 01:19:26;;;;;;;6.90;3.97;;;;;;;3.92;64.12;94364.09;5009037;28;20029;-75
2023/01/11 01:21:52;;;;;;;6.80;3.10;;;;;;;3.87;63.99;94357.16;5013851;28;20044;-74
2023/01/11 01:24:17;;;;;;;5.22;3.28;;;;;;;3.84;63.81;94360.72;5027710;28;20066;-75
2023/01/11 01:26:43;;;;;;;4.53;2.58;;;;;;;3.79;64.15;94369.31;5028365;28;20067;-75
2023/01/11 01:29:08;;;;;;;5.95;3.30;;;;;;;3.76;64.45;94367.38;5027967;28;20029;-74
2023/01/11 01:31:34;;;;;;;6.32;3.20;;;;;;;3.75;64.46;94375.97;5028542;28;20025;-73
2023/01/11 01:33:59;;;;;;;6.13;3.15;;;;;;;3.69;64.48;94368.25;5026832;28;20029;-75
2023/01/11 01:36:24;;;;;;;4.47;2.63;;;;;;;3.65;64.80;94383.81;5028494;28;20403;-75
2023/01/11 01:38:50;;;;;;;4.90;3.10;;;;;;;3.66;64.75;94390.03;5027926;28;20021;-76
2023/01/11 01:41:16;;;;;;;3.63;2.67;;;;;;;3.60;64.72;94381.53;5044220;28;20041;-74
2023/01/11 01:43:59;;;;;;;5.63;2.55;;;;;;;3.57;65.28;94389.75;5011567;28;20029;-74
2023/01/11 01:46:32;;;;;;;4.22;2.53;;;;;;;3.56;64.92;94382.78;5010606;28;20064;-76
2023/01/11 01:49:05;;;;;;;4.78;2.85;;;;;;;3.59;65.09;94384.69;5028383;28;20112;-76
2023/01/11 01:51:39;;;;;;;6.00;2.42;;;;;;;3.57;64.89;94387.03;5028289;28;20526;-75
2023/01/11 01:54:07;;;;;;;3.33;2.45;;;;;;;3.58;64.84;94386.63;5012596;28;20441;-75
2023/01/11 01:56:35;;;;;;;3.40;2.47;;;;;;;3.57;64.99;94381.59;5011272;28;20025;-76
2023/01/11 01:59:06;;;;;;;4.03;2.65;;;;;;;3.58;64.88;94383.13;5011292;28;20059;-75
2023/01/11 02:01:47;;;;;;;3.88;2.95;;;;;;;3.57;65.04;94381.59;5025858;28;20033;-75
2023/01/11 02:04:34;;;;;;;3.88;2.85;;;;;;;3.63;64.85;94377.25;5025369;28;20037;-74
2023/01/11 02:07:00;;;;;;;3.75;2.45;;;;;;;3.60;64.91;94388.94;5044229;28;20037;-75
2023/01/11 02:09:35;;;;;;;4.10;3.08;;;;;;;3.60;64.74;94380.78;5044102;28;20080;-75
2023/01/11 02:12:00;;;;;;;3.88;2.55;;;;;;;3.55;65.19;94390.13;5026818;28;20048;-75
2023/01/11 02:14:27;;;;;;;4.57;2.60;;;;;;;3.55;65.20;94397.53;5011416;28;20408;-74
2023/01/11 02:16:52;;;;;;;3.67;2.28;;;;;;;3.56;64.91;94405.28;5013207;28;20048;-76
2023/01/11 02:19:30;;;;;;;3.75;2.45;;;;;;;3.62;64.98;94411.06;5038313;28;20404;-76
2023/01/11 02:22:13;;;;;;;5.07;2.42;;;;;;;3.56;64.97;94407.25;5043575;28;20167;-75
2023/01/11 02:25:01;;;;;;;3.85;2.72;;;;;;;3.56;65.07;94423.56;5044061;28;20052;-75
2023/01/11 02:28:04;;;;;;;4.80;2.42;;;;;;;3.62;64.89;94428.13;5043561;28;20186;-75
2023/01/11 02:30:51;;;;;;;3.28;2.05;;;;;;;3.59;65.16;94437.09;5060136;28;20499;-75
2023/01/11 02:33:42;;;;;;;4.90;2.55;;;;;;;3.61;65.20;94442.91;5043526;28;20495;-75
2023/01/11 02:36:30;;;;;;;4.28;2.20;;;;;;;3.66;65.22;94438.97;5027415;28;20037;-75
2023/01/11 02:39:23;;;;;;;3.53;2.95;;;;;;;3.75;64.78;94441.22;5025702;28;20068;-76
2023/01/11 02:45:00;;;;;;;5.18;3.28;;;;;;;3.85;64.44;94453.94;5043141;28;20349;-77
2023/01/11 02:47:43;;;;;;;4.88;3.47;;;;;;;3.89;64.47;94457.34;5026765;28;20547;-76
2023/01/11 02:50:45;;;;;;;3.78;2.33;;;;;;;3.93;64.15;94455.38;4993079;28;20096;-76
2023/01/11 02:53:29;;;;;;;4.13;2.50;;;;;;;3.86;64.52;94466.34;5023960;28;20060;-76
2023/01/11 02:55:57;;;;;;;3.80;2.72;;;;;;;3.87;64.81;94468.66;5023587;28;20041;-76
2023/01/11 02:58:24;;;;;;;4.43;2.58;;;;;;;3.89;64.62;94462.78;5006116;28;20051;-76
2023/01/11 03:00:50;;;;;;;5.22;2.88;;;;;;;3.87;64.57;94449.63;5026668;28;20049;-76
2023/01/11 03:03:18;;;;;;;3.67;2.58;;;;;;;3.95;64.62;94461.94;5022092;28;20053;-76
2023/01/11 03:05:47;;;;;;;4.75;2.97;;;;;;;3.98;64.53;94465.81;5007544;28;20180;-76
2023/01/11 03:08:24;;;;;;;4.45;2.97;;;;;;;3.98;64.21;94472.03;5010846;28;20400;-75
2023/01/11 03:14:24;;;;;;;3.40;2.65;;;;;;;3.85;64.23;94473.72;5028517;28;20488;-76
2023/01/11 03:17:00;;;;;;;5.38;3.70;;;;;;;3.82;64.60;94479.19;5045522;28;20056;-77
2023/01/11 03:19:49;;;;;;;8.10;5.32;;;;;;;3.82;64.67;94471.81;5047896;28;20028;-75
2023/01/11 03:22:30;;;;;;;8.38;5.22;;;;;;;3.77;64.84;94480.41;5047639;28;20086;-75
2023/01/11 03:25:13;;;;;;;7.88;5.25;;;;;;;3.70;65.22;94477.75;5014478;28;20123;-75
2023/01/11 03:27:51;;;;;;;9.02;5.47;;;;;;;3.69;65.67;94476.22;5031212;28;20048;-76
2023/01/11 03:30:23;;;;;;;8.95;5.57;;;;;;;3.75;65.34;94477.31;5030926;28;20033;-75
2023/01/11 03:32:56;;;;;;;8.98;6.25;;;;;;;3.71;64.99;94469.19;5036400;28;20044;-75
2023/01/11 03:35:29;;;;;;;8.00;5.97;;;;;;;3.73;65.43;94466.88;5046069;28;20029;-76
2023/01/11 03:37:59;;;;;;;;;;;;;;;3.74;65.56;94473.06;5031332;28;20029;-75
2023/01/11 03:40:41;;;;;;;8.45;6.15;;;;;;;3.65;65.58;94470.03;5041826;28;19917;-74
2023/01/11 03:43:12;;;;;;;8.57;6.47;;;;;;;3.55;66.16;94471.69;5035163;28;20025;-74
2023/01/11 03:45:52;;;;;;;8.27;6.07;;;;;;;3.47;66.21;94470.97;5031883;28;20031;-75
2023/01/11 03:48:21;;;;;;;8.57;6.30;;;;;;;3.52;66.30;94474.44;5006630;28;20497;-76
2023/01/11 03:50:47;;;;;;;9.18;6.25;;;;;;;3.60;66.16;94481.34;5010678;28;20029;-76
2023/01/11 03:53:13;;;;;;;10.40;7.20;;;;;;;3.61;66.05;94475.53;5010014;28;20022;-74
2023/01/11 03:55:41;;;;;;;9.07;6.90;;;;;;;3.72;65.63;94472.69;5010241;28;20121;-74
2023/01/11 03:58:07;;;;;;;10.60;7.68;;;;;;;3.68;65.46;94474.69;5026851;28;20022;-76
2023/01/11 04:00:34;;;;;;;9.57;7.07;;;;;;;3.75;65.41;94477.31;5024125;28;20031;-76
2023/01/11 04:03:01;;;;;;;10.75;6.90;;;;;;;3.78;65.21;94481.94;5030342;28;20052;-77
2023/01/11 04:05:27;;;;;;;10.07;6.70;;;;;;;3.85;65.10;94484.59;5029680;28;20466;-74
2023/01/11 04:07:53;;;;;;;11.57;7.57;;;;;;;3.82;65.12;94482.69;5046698;28;20064;-75
2023/01/11 04:10:18;;;;;;;7.25;5.63;;;;;;;3.85;64.80;94481.88;5029220;28;20057;-76
2023/01/11 04:12:47;;;;;;;9.20;5.93;;;;;;;3.85;64.69;94490.03;5029824;28;20423;-75
2023/01/11 04:15:13;;;;;;;8.45;5.35;;;;;;;3.89;64.69;94495.44;5038979;28;20033;-76
2023/01/11 04:17:40;;;;;;;5.72;4.70;;;;;;;3.96;64.49;94501.59;5021125;28;20037;-75
2023/01/11 04:20:08;;;;;;;7.80;4.72;;;;;;;3.98;64.27;94503.91;5027981;28;20029;-75
2023/01/11 04:22:34;;;;;;;6.07;4.78;;;;;;;4.05;64.17;94503.03;5041508;28;20038;-74
2023/01/11 04:25:01;;;;;;;5.38;4.03;;;;;;;4.07;64.06;94498.75;5026240;28;20051;-76
2023/01/11 04:27:26;;;;;;;6.20;4.43;;;;;;;4.08;63.93;94499.53;5027799;28;20026;-76
2023/01/11 04:29:52;;;;;;;6.03;3.80;;;;;;;4.14;63.56;94511.50;5010924;28;20053;-75
2023/01/11 04:32:17;;;;;;;5.05;3.22;;;;;;;4.13;63.50;94509.94;5035317;28;20048;-76
2023/01/11 04:34:43;;;;;;;4.13;2.85;;;;;;;4.12;63.22;94508.41;5039885;28;20026;-76
2023/01/11 04:37:08;;;;;;;3.83;2.80;;;;;;;4.08;63.57;94518.56;5045171;28;20491;-76
2023/01/11 04:39:34;;;;;;;4.55;2.55;;;;;;;4.03;63.61;94517.06;5046036;28;20027;-77
2023/01/11 04:42:17;;;;;;;5.65;3.03;;;;;;;4.03;63.61;94517.06;5046340;28;20028;-77
2023/01/11 04:44:47;;;;;;;3.47;2.35;;;;;;;4.02;63.62;94515.53;5039261;28;20484;-76
2023/01/11 04:47:14;;;;;;;6.28;2.65;;;;;;;4.05;63.59;94520.13;5029745;28;20144;-74
2023/01/11 04:49:39;;;;;;;6.40;3.70;;;;;;;4.04;63.53;94523.25;5008189;28;20029;-75
2023/01/11 04:52:05;;;;;;;5.03;3.13;;;;;;;4.03;63.43;94521.72;5045093;28;20079;-74
2023/01/11 04:54:30;;;;;;;4.00;2.65;;;;;;;4.06;63.59;94529.06;5046004;28;20036;-76
2023/01/11 04:56:56;;;;;;;3.90;2.85;;;;;;;4.05;63.59;94531.00;5045107;28;20026;-75
2023/01/11 04:59:22;;;;;;;4.43;2.55;;;;;;;4.11;63.70;94543.00;5028300;28;20044;-75
2023/01/11 05:01:51;;;;;;;4.78;2.58;;;;;;;4.12;63.37;94532.88;5046039;28;20036;-75
2023/01/11 05:04:17;;;;;;;3.92;2.67;;;;;;;4.19;63.22;94543.72;5044801;28;20507;-76
2023/01/11 05:06:43;;;;;;;4.25;2.58;;;;;;;4.20;63.33;94537.84;5027983;28;20123;-76
2023/01/11 05:09:12;;;;;;;4.93;2.83;;;;;;;4.15;63.19;94535.56;5027175;28;20094;-75
2023/01/11 05:11:37;;;;;;;5.47;3.20;;;;;;;4.07;62.98;94549.66;5045553;28;20040;-76
2023/01/11 05:14:03;;;;;;;5.10;3.20;;;;;;;4.02;63.70;94552.84;5027782;28;20025;-75
2023/01/11 05:16:28;;;;;;;4.18;3.00;;;;;;;4.10;63.39;94557.00;5045646;28;20021;-74
2023/01/11 05:18:55;;;;;;;4.18;2.75;;;;;;;4.07;63.37;94555.09;5027862;28;20045;-75
2023/01/11 05:21:25;;;;;;;3.97;3.15;;;;;;;4.07;63.28;94560.53;5028392;28;20044;-75
2023/01/11 05:23:51;;;;;;;4.00;2.60;;;;;;;4.10;63.40;94571.38;5028992;28;20040;-75
2023/01/11 05:26:18;;;;;;;2.97;2.22;;;;;;;4.09;63.28;94569.06;5024429;28;20482;-74
2023/01/11 05:28:44;;;;;;;3.42;2.63;;;;;;;4.09;63.37;94569.06;5008380;28;20033;-75
2023/01/11 05:31:09;;;;;;;4.05;2.78;;;;;;;4.04;63.78;94561.34;5025322;28;20033;-76
2023/01/11 05:33:35;;;;;;;3.72;2.80;;;;;;;4.02;63.52;94558.28;5011738;28;20033;-76
2023/01/11 05:36:02;;;;;;;4.30;3.35;;;;;;;4.01;63.72;94560.19;5010543;28;20024;-76
2023/01/11 05:38:27;;;;;;;4.25;2.50;;;;;;;3.96;63.23;94560.66;5028280;28;20043;-75
2023/01/11 05:40:56;;;;;;;4.25;2.50;;;;;;;3.92;63.49;94562.63;5020637;28;20025;-75
2023/01/11 05:43:22;;;;;;;3.67;2.17;;;;;;;3.92;63.73;94571.56;5026966;28;20037;-75
2023/01/11 05:45:47;;;;;;;4.15;2.88;;;;;;;3.95;63.61;94572.69;5039560;28;20564;-77
2023/01/11 05:48:13;;;;;;;3.85;2.38;;;;;;;4.00;63.46;94564.84;5017863;28;20029;-75
2023/01/11 05:50:38;;;;;;;4.47;3.10;;;;;;;4.02;63.38;94575.34;5020459;28;20758;-75
2023/01/11 05:53:04;;;;;;;4.50;2.78;;;;;;;4.08;63.17;94584.63;5042148;28;20095;-73
2023/01/11 05:55:29;;;;;;;4.00;3.13;;;;;;;4.10;62.94;94576.81;5028265;28;20502;-73
2023/01/11 05:57:55;;;;;;;4.53;2.78;;;;;;;4.13;62.58;94581.47;5043991;28;20112;-75
2023/01/11 06:00:21;;;;;;;5.38;2.63;;;;;;;4.08;62.71;94586.56;5026761;28;20033;-73
2023/01/11 06:02:46;;;;;;;4.93;2.85;;;;;;;4.09;62.85;94591.59;5043364;28;20436;-74
2023/01/11 06:05:12;;;;;;;3.35;2.60;;;;;;;4.11;62.86;94596.63;5043747;28;20032;-74
2023/01/11 06:07:37;;;;;;;4.45;2.78;;;;;;;4.13;62.46;94595.06;5044715;28;20060;-75
2023/01/11 06:10:03;;;;;;;4.55;2.90;;;;;;;4.09;62.65;94597.03;5027150;28;20049;-75
2023/01/11 06:12:28;;;;;;;3.00;2.53;;;;;;;3.99;63.06;94593.25;5044768;28;20078;-74
2023/01/11 06:14:54;;;;;;;4.25;2.90;;;;;;;4.05;62.83;94600.97;5027025;28;20530;-76
2023/01/11 06:17:19;;;;;;;3.85;2.55;;;;;;;4.10;62.78;94606.75;5045483;28;20440;-74
2023/01/11 06:19:45;;;;;;;5.25;3.10;;;;;;;4.13;62.74;94607.88;5027052;28;20502;-75
2023/01/11 06:22:11;;;;;;;4.68;2.92;;;;;;;4.13;62.25;94618.75;5043852;28;20043;-73
2023/01/11 06:24:37;;;;;;;4.82;2.50;;;;;;;4.09;62.59;94616.09;5044100;28;20131;-76
2023/01/11 06:27:03;;;;;;;5.72;2.97;;;;;;;4.18;62.40;94626.50;5043677;28;20048;-76
2023/01/11 06:29:28;;;;;;;9.02;4.25;;;;;;;4.26;62.17;94622.53;5044288;28;20029;-75
2023/01/11 06:31:57;;;;;;;7.13;3.25;;;;;;;4.30;61.95;94622.50;5027671;28;20413;-75
2023/01/11 06:34:22;;;;;;;3.28;2.90;;;;;;;4.33;62.02;94632.59;5028007;28;20028;-74
2023/01/11 06:36:48;;;;;;;6.47;3.70;;;;;;;4.37;61.78;94646.94;5043076;28;20037;-73
2023/01/11 06:39:13;;;;;;;7.47;3.97;;;;;;;4.36;61.57;94639.94;5044932;28;20491;-74
2023/01/11 06:41:38;;;;;;;7.25;4.57;;;;;;;4.40;61.92;94643.38;5042945;28;20447;-75
2023/01/11 06:44:05;;;;;;;7.90;4.70;;;;;;;4.46;61.34;94639.81;5044705;28;20506;-74
2023/01/11 06:46:30;;;;;;;6.47;3.80;;;;;;;4.46;61.66;94639.06;5045370;28;20068;-74
2023/01/11 06:48:56;;;;;;;4.53;3.55;;;;;;;4.45;61.56;94638.28;5043199;28;20110;-74
2023/01/11 06:51:21;;;;;;;6.03;3.70;;;;;;;4.50;61.30;94647.97;5027376;28;20480;-74
2023/01/11 06:53:46;;;;;;;5.65;3.17;;;;;;;4.57;61.18;94652.56;5043364;28;20032;-76
2023/01/11 06:56:13;;;;;;;7.25;3.85;;;;;;;4.64;61.08;94657.91;5043495;28;20086;-75
2023/01/11 06:58:39;;;;;;;6.70;3.28;;;;;;;4.66;60.94;94658.31;5026768;28;20428;-73
2023/01/11 07:01:05;;;;;;;4.25;3.10;;;;;;;4.74;60.63;94662.50;5043347;28;20106;-73
2023/01/11 07:03:30;;;;;;;8.68;3.20;;;;;;;4.79;60.58;94662.06;5044019;28;20049;-73
2023/01/11 07:05:56;;;;;;;4.20;2.92;;;;;;;4.86;59.86;94659.25;5026733;28;20411;-74
2023/01/11 07:08:22;;;;;;;6.10;3.50;;;;;;;4.90;60.16;94670.88;5027820;28;20055;-76
2023/01/11 07:10:47;;;;;;;7.28;3.95;;;;;;;4.89;59.95;94669.34;5026839;28;20063;-73
2023/01/11 07:13:16;;;;;;;5.70;3.55;;;;;;;4.97;59.98;94675.47;5043366;28;20403;-75
2023/01/11 07:15:47;;;;;;;7.20;4.15;;;;;;;5.06;59.52;94679.25;5027024;28;20025;-74
2023/01/11 07:18:13;;;;;;;6.10;3.35;;;;;;;5.02;59.57;94686.69;5043410;28;20025;-75
2023/01/11 07:20:38;;;;;;;4.45;3.22;;;;;;;5.02;59.58;94683.97;5027476;28;20036;-74
2023/01/11 07:23:04;;;;;;;5.68;2.60;;;;;;;5.17;59.49;94689.25;5043067;28;20021;-75
2023/01/11 07:25:29;;;;;;;4.85;2.75;;;;;;;5.22;58.73;94694.25;5043476;28;20488;-74
2023/01/11 07:27:58;;;;;;;4.70;3.00;;;;;;;5.27;58.26;94691.06;5043672;28;20060;-74
2023/01/11 07:30:25;;;;;;;4.10;3.42;;;;;;;5.37;58.52;94689.41;5027403;28;20104;-74
2023/01/11 07:32:50;;;;;;;5.95;4.00;;;;;;;5.44;58.32;94698.25;5010006;28;20040;-75
2023/01/11 07:35:16;;;;;;;5.18;3.25;;;;;;;5.54;58.12;94689.16;5026521;28;20021;-75
2023/01/11 07:37:41;;;;;;;4.40;3.28;;;;;;;5.64;57.13;94708.53;5043033;28;20025;-74
2023/01/11 07:40:07;;;;;;;4.10;2.67;;;;;;;5.64;57.17;94712.03;5026351;28;20025;-77
2023/01/11 07:45:16;;;;;;;4.53;2.80;;;;;;;5.52;56.99;94707.13;5028999;28;20454;-75
2023/01/11 07:47:42;;;;;;;5.10;2.78;;;;;;;5.60;57.16;94714.78;5026773;28;20455;-74
2023/01/11 07:50:08;;;;;;;5.10;2.78;;;;;;;5.59;56.79;94712.47;5042877;28;20223;-75
2023/01/11 07:52:33;;;;;;;5.00;2.80;;;;;;;5.55;57.04;94722.66;5028177;28;20025;-75
2023/01/11 07:55:01;;;;;;;4.68;2.92;;;;;;;5.54;57.04;94729.28;5046688;28;20028;-74
2023/01/11 07:57:30;;;;;;;4.88;3.45;;;;;;;5.48;57.00;94731.69;5046090;28;20033;-74
2023/01/11 07:59:55;;;;;;;3.90;2.97;;;;;;;5.47;57.16;94737.56;5030730;28;20047;-73
2023/01/11 08:02:21;;;;;;;3.70;3.00;;;;;;;5.52;57.10;94743.34;5029214;28;20436;-74
2023/01/11 08:04:46;;;;;;;4.03;2.70;;;;;;;5.48;57.20;94737.16;5046762;28;20108;-73
2023/01/11 08:07:12;;;;;;;4.60;3.03;;;;;;;5.58;57.08;94743.66;5046941;28;20024;-74
2023/01/11 08:09:37;;;;;;;3.95;2.65;;;;;;;5.59;56.77;94748.69;5029764;28;20064;-74
2023/01/11 08:14:47;;;;;;;2.17;1.55;;;;;;;5.44;56.80;94752.00;5032165;28;20041;-75
2023/01/11 08:17:14;;;;;;;1.98;1.60;;;;;;;5.49;56.63;94755.03;5029685;28;20025;-75
2023/01/11 08:19:39;;;;;;;1.65;1.10;;;;;;;5.69;55.52;94762.63;5029625;28;20060;-74
2023/01/11 08:22:05;;;;;;;3.90;2.30;;;;;;;5.67;55.74;94759.50;5029979;28;20100;-76
2023/01/11 08:24:30;;;;;;;7.72;3.60;;;;;;;5.73;55.53;94771.50;5046466;28;20025;-74
2023/01/11 08:26:56;;;;;;;4.78;2.10;;;;;;;5.89;55.48;94770.91;5046225;28;20063;-75
2023/01/11 08:29:22;;;;;;;4.05;2.47;;;;;;;6.04;54.91;94777.75;5029384;28;20021;-76
2023/01/11 08:31:47;;;;;;;4.97;2.83;;;;;;;6.33;54.38;94794.50;5029203;28;20090;-74
2023/01/11 08:34:13;;;;;;;4.93;2.63;;;;;;;6.51;53.82;94789.53;5029626;28;20120;-74
2023/01/11 08:36:39;;;;;;;3.40;2.22;;;;;;;6.59;53.67;94796.44;5045546;28;20029;-75
2023/01/11 08:39:04;;;;;;;4.20;2.33;;;;;;;6.89;52.72;94792.06;5030227;28;20518;-75
2023/01/11 08:41:31;;;;;;;6.25;2.80;;;;;;;7.21;52.16;94801.66;5045081;28;20021;-76
2023/01/11 08:43:57;;;;;;;4.65;2.67;;;;;;;7.44;51.96;94796.16;5046194;28;20043;-74
2023/01/11 08:46:22;;;;;;;4.35;2.92;;;;;;;7.81;50.91;94797.78;5028525;28;20037;-75
2023/01/11 08:48:47;;;;;;;6.57;2.95;;;;;;;8.37;49.25;94806.00;5045430;28;20024;-76
2023/01/11 08:51:13;;;;;;;4.43;2.60;;;;;;;9.28;47.29;94801.44;5028914;28;20554;-75
2023/01/11 08:53:38;;;;;;;3.88;2.10;;;;;;;10.45;44.44;94807.63;5012139;28;20021;-74
2023/01/11 08:56:04;;;;;;;2.55;1.70;;;;;;;13.63;38.98;94807.16;5046075;28;20440;-75
2023/01/11 08:58:30;;;;;;;2.35;1.58;;;;;;;14.94;34.22;94811.53;5028194;28;20040;-75
2023/01/11 09:01:01;;;;;;;1.42;1.00;;;;;;;15.61;32.78;94803.91;5029356;28;20037;-74
2023/01/11 09:03:27;;;;;;;1.88;1.10;;;;;;;17.04;30.54;94805.47;5044353;28;20487;-74
2023/01/11 09:05:55;;;;;;;1.10;0.90;;;;;;;17.32;29.73;94819.78;5028650;28;20028;-76
2023/01/11 09:08:22;;;;;;;1.40;0.80;;;;;;;17.36;29.69;94822.31;5045367;28;20017;-73
2023/01/11 09:10:47;;;;;;;2.25;0.70;;;;;;;18.03;28.15;94826.00;5028201;28;20052;-75
2023/01/11 09:13:13;;;;;;;1.38;0.90;;;;;;;18.27;27.70;94820.94;5029018;28;20025;-74
2023/01/11 09:15:38;;;;;;;0.98;0.60;;;;;;;16.70;29.44;94815.25;5027848;28;20434;-74
2023/01/11 09:18:04;;;;;;;1.10;0.70;;;;;;;15.85;31.12;94809.44;5047053;28;20036;-75
2023/01/11 09:20:29;;;;;;;2.65;1.00;;;;;;;14.85;32.50;94815.09;5028203;28;20033;-74
2023/01/11 09:22:55;;;;;;;1.88;0.60;;;;;;;13.79;34.00;94821.44;5045705;28;20037;-68
2023/01/11 09:25:21;;;;;;;1.88;1.20;;;;;;;13.42;35.37;94822.59;5046436;28;20028;-68
2023/01/11 09:27:48;;;;;;;1.13;0.90;;;;;;;13.06;36.18;94815.00;5045190;28;20075;-69
2023/01/11 09:30:18;;;;;;;1.33;0.80;;;;;;;12.57;37.14;94816.50;5046829;28;20036;-68
2023/01/11 09:32:47;;;;;;;1.25;0.90;;;;;;;11.63;38.49;94820.31;5044622;28;20055;-69
2023/01/11 09:35:15;;;;;;;1.30;0.70;;;;;;;11.16;39.77;94821.88;5046422;28;20435;-68
2023/01/11 09:37:44;;;;;;;1.55;0.80;;;;;;;10.49;41.09;94827.50;5046229;28;20032;-69
2023/01/11 09:40:14;;;;;;;1.73;0.90;;;;;;;9.98;42.54;94826.66;5046269;28;20094;-67
2023/01/11 09:42:39;;;;;;;1.27;0.90;;;;;;;9.50;43.54;94815.38;5028795;28;20024;-68
2023/01/11 09:45:27;;;;;;;1.48;0.90;;;;;;;9.31;44.17;94817.03;5046142;28;20039;-68
2023/01/11 09:48:10;;;;;;;4.97;2.75;;;;;;;9.53;44.06;94821.97;5045132;28;20543;-68
2023/01/11 09:50:40;;;;;;;1.85;1.33;;;;;;;9.40;44.90;94830.13;5030232;28;20052;-68
2023/01/11 09:53:08;;;;;;;1.35;1.08;;;;;;;9.03;44.53;94815.03;5028840;28;20114;-68
2023/01/11 09:55:42;;;;;;;2.30;1.38;;;;;;;8.87;44.79;94826.75;5045752;28;20039;-69
2023/01/11 09:58:39;;;;;;;2.55;1.08;;;;;;;8.89;45.19;94824.38;5027833;28;20033;-69
2023/01/11 10:01:11;;;;;;;1.90;1.25;;;;;;;8.71;45.61;94827.50;5044781;28;20518;-67
2023/01/11 10:04:02;;;;;;;2.72;1.60;;;;;;;8.63;45.84;94828.88;5043651;28;20033;-69
2023/01/11 10:06:42;;;;;;;1.35;0.80;;;;;;;8.51;45.99;94824.09;5045439;28;20737;-69
2023/01/11 10:09:31;;;;;;;2.03;1.10;;;;;;;8.50;46.36;94823.31;5029443;28;20119;-69
2023/01/11 10:12:24;;;;;;;2.40;1.20;;;;;;;8.43;46.86;94828.97;5044095;28;20043;-69
2023/01/11 10:15:15;;;;;;;2.67;1.33;;;;;;;8.35;46.21;94824.78;5045956;28;20240;-68
2023/01/11 10:18:21;;;;;;;3.45;1.70;;;;;;;8.11;47.02;94831.56;5032095;28;20053;-69
2023/01/11 10:20:52;;;;;;;4.40;1.60;;;;;;;7.84;47.67;94818.81;5036741;28;20037;-68
2023/01/11 10:23:36;;;;;;;3.00;1.80;;;;;;;7.77;48.35;94816.22;5027930;28;20064;-69
2023/01/11 10:26:08;;;;;;;1.63;1.10;;;;;;;7.63;48.62;94822.75;5045661;28;20501;-69
2023/01/11 10:28:41;;;;;;;2.70;1.73;;;;;;;7.56;48.76;94816.63;5043503;28;20025;-68
2023/01/11 10:31:42;;;;;;;4.38;2.05;;;;;;;7.52;48.78;94816.72;5028900;28;20052;-68
2023/01/11 10:34:37;;;;;;;5.05;2.00;;;;;;;7.48;49.28;94826.94;5031175;28;20534;-68
2023/01/11 10:41:03;;;;;;;2.10;1.75;;;;;;;7.54;49.55;94814.31;5044876;28;20446;-69
2023/01/11 10:43:15;;;;;;;4.65;2.58;;;;;;;7.59;48.71;94819.31;5048634;28;20079;-68
2023/01/11 10:45:49;;;;;;;3.95;2.20;;;;;;;7.59;49.52;94813.06;5043640;28;20076;-68
2023/01/11 10:48:14;;;;;;;3.35;2.47;;;;;;;7.66;49.63;94819.16;5045868;28;20041;-69
2023/01/11 10:51:06;;;;;;;2.75;1.95;;;;;;;7.69;49.87;94814.84;5044815;28;20472;-69
2023/01/11 10:53:59;;;;;;;2.42;1.70;;;;;;;7.90;48.64;94819.84;5045164;28;20171;-67
2023/01/11 10:56:41;;;;;;;3.17;1.80;;;;;;;7.96;48.28;94818.16;5044300;28;20056;-68
2023/01/11 10:59:35;;;;;;;2.70;1.63;;;;;;;8.00;48.26;94815.38;5043467;28;20535;-69
2023/01/11 11:02:15;;;;;;;3.95;2.67;;;;;;;8.06;48.02;94821.88;5045442;28;20048;-68
2023/01/11 11:05:32;;;;;;;3.15;2.22;;;;;;;7.97;48.79;94813.47;5044820;28;20411;-67
2023/01/11 11:08:03;;;;;;;4.70;1.80;;;;;;;7.86;48.97;94813.72;5039348;28;20041;-68
2023/01/11 11:10:55;;;;;;;12.88;5.40;;;;;;;7.87;49.09;94809.78;5043687;28;20048;-70
2023/01/11 11:13:45;;;;;;;30.23;10.68;;;;;;;7.96;48.76;94803.72;5032748;28;20064;-70
2023/01/11 11:16:22;;;;;;;9.80;4.65;;;;;;;8.10;47.88;94802.66;5045177;28;20403;-69
2023/01/11 11:18:52;;;;;;;13.27;5.55;;;;;;;8.24;47.38;94802.34;5046242;28;20033;-70
2023/01/11 11:21:34;;;;;;;11.43;4.90;;;;;;;8.18;47.42;94804.81;5026918;28;20084;-69
2023/01/11 11:24:08;;;;;;;7.40;3.00;;;;;;;8.23;46.86;94806.28;5043382;28;20037;-68
2023/01/11 11:26:37;;;;;;;4.05;2.00;;;;;;;8.20;46.68;94796.97;5043235;28;20405;-68
2023/01/11 11:29:07;;;;;;;5.60;3.10;;;;;;;8.19;45.84;94805.56;5046925;28;20056;-68
2023/01/11 11:31:33;;;;;;;2.17;1.63;;;;;;;8.31;46.37;94812.34;5047890;28;20029;-69
2023/01/11 11:34:06;;;;;;;4.82;2.53;;;;;;;8.48;46.72;94805.75;5048089;28;20029;-68
2023/01/11 11:36:42;;;;;;;18.00;6.65;;;;;;;8.75;46.91;94809.03;5046905;28;20048;-68
2023/01/11 11:39:21;;;;;;;7.82;3.97;;;;;;;8.85;47.27;94817.44;5046951;28;20029;-67
2023/01/11 11:41:55;;;;;;;10.50;3.65;;;;;;;8.87;47.10;94817.75;5030617;28;20029;-68
2023/01/11 11:44:25;;;;;;;5.30;2.90;;;;;;;8.70;46.56;94825.97;5047408;28;20111;-68
2023/01/11 11:47:15;;;;;;;4.45;2.20;;;;;;;8.59;46.89;94822.72;5047850;28;20025;-68
2023/01/11 11:49:41;;;;;;;3.67;1.92;;;;;;;8.52;47.39;94822.88;5048453;28;20533;-69
2023/01/11 11:52:10;;;;;;;2.03;1.65;;;;;;;8.40;47.16;94824.31;5048451;28;20021;-69
2023/01/11 11:54:40;;;;;;;3.42;2.00;;;;;;;8.40;47.69;94831.75;5030341;28;20060;-67
2023/01/11 11:57:11;;;;;;;9.63;8.70;;;;;;;8.33;47.94;94826.41;5048889;28;20079;-68
2023/01/11 11:59:37;;;;;;;6.18;4.88;;;;;;;8.24;48.01;94827.75;5047631;28;20404;-69
2023/01/11 12:02:03;;;;;;;3.83;2.75;;;;;;;8.27;48.02;94833.59;5048746;28;20032;-68
2023/01/11 12:04:37;;;;;;;3.45;2.60;;;;;;;8.22;47.51;94832.91;5046437;28;20028;-69
2023/01/11 12:07:15;;;;;;;3.65;2.72;;;;;;;8.28;48.40;94833.16;5048342;28;20475;-68
2023/01/11 12:09:56;;;;;;;3.67;2.70;;;;;;;8.08;48.85;94835.16;5049069;28;20058;-68
2023/01/11 12:12:21;;;;;;;2.90;2.58;;;;;;;7.91;49.76;94832.38;5046317;28;20037;-68
2023/01/11 12:15:07;;;;;;;5.18;3.38;;;;;;;7.89;50.40;94834.75;5047423;28;20031;-68
2023/01/11 12:17:32;;;;;;;5.78;3.63;;;;;;;7.82;50.72;94834.13;5047302;28;20506;-69
2023/01/11 12:19:58;;;;;;;6.45;3.90;;;;;;;7.84;50.50;94837.97;5047945;28;20022;-67